Station History

Weather Underground - logo

Station Historical Data
Daily Summary for March 2, 2018 Units:  English    Metric   Both
« Previous Day
Next Day »
Daily Weekly Monthly Yearly Custom
  High: Low: Average:
Temperature: 61.5 °F 47.9 °F 52.5 °F
Dew Point: 50.7 °F 45.6 °F 48.2 °F
Humidity: 96 % 58 % 86 %
Wind Speed: 8.1 mph 0.0 mph 2 mph
Wind Gust: 8.1 mph - -
Wind:- - SSE
Pressure: 30.05 in 29.95 in -
Precipitation: 0.56 in    
Historical Graphs
 
 
Tabular Data for March 2, 2018
Time Temperature Dew Point Pressure Wind Wind Speed Wind Gust Humidity Rainfall Rate (Hourly)
00:04 51.3 °F 48.5 °F 29.96 in ESE 2.3 mph 2.3 mph 90 % 0.03 in
00:09 51.3 °F 48.5 °F 29.96 in SE 3.5 mph 3.5 mph 90 % 0.03 in
00:14 51.5 °F 48.7 °F 29.95 in SE 4.0 mph 4.0 mph 90 % 0.03 in
00:19 51.6 °F 48.5 °F 29.96 in East 3.5 mph 3.5 mph 89 % 0.03 in
00:24 51.5 °F 48.4 °F 29.95 in East 1.2 mph 1.2 mph 89 % 0.03 in
00:29 51.4 °F 48.6 °F 29.95 in ESE 3.5 mph 3.5 mph 90 % 0.02 in
00:34 51.4 °F 48.6 °F 29.95 in SE 3.5 mph 3.5 mph 90 % 0.02 in
00:39 51.4 °F 48.3 °F 29.95 in ESE 3.5 mph 3.5 mph 89 % 0.02 in
00:44 51.5 °F 48.4 °F 29.95 in SSE 5.8 mph 5.8 mph 89 % 0.01 in
00:49 51.5 °F 48.4 °F 29.95 in East 1.2 mph 1.2 mph 89 % 0.01 in
00:54 51.4 °F 48.3 °F 29.95 in East 2.3 mph 2.3 mph 89 % 0.01 in
00:59 51.5 °F 48.4 °F 29.95 in SSE 2.3 mph 2.3 mph 89 % 0.02 in
01:04 51.5 °F 48.4 °F 29.95 in SSE 1.2 mph 1.2 mph 89 % 0.02 in
01:09 51.4 °F 48.6 °F 29.95 in ESE 1.2 mph   90 % 0.01 in
01:14 51.3 °F 48.5 °F 29.95 in ESE 1.2 mph   90 % 0.02 in
01:19 51.2 °F 48.4 °F 29.96 in Calm     90 % 0.02 in
01:24 51.1 °F 48.6 °F 29.96 in Calm     91 % 0.03 in
01:29 51.0 °F 48.5 °F 29.97 in Calm     91 % 0.04 in
01:34 50.9 °F 48.7 °F 29.98 in Calm     92 % 0.05 in
01:39 50.8 °F 48.6 °F 29.97 in Calm     92 % 0.07 in
01:44 50.7 °F 48.7 °F 29.97 in Calm     93 % 0.08 in
01:49 50.6 °F 48.7 °F 29.96 in SE 2.3 mph 2.3 mph 93 % 0.09 in
01:54 50.6 °F 48.7 °F 29.97 in South 1.2 mph 1.2 mph 93 % 0.09 in
01:59 50.6 °F 48.7 °F 29.97 in SE 1.2 mph 1.2 mph 93 % 0.08 in
02:04 50.6 °F 48.7 °F 29.97 in SSE 3.5 mph 3.5 mph 93 % 0.08 in
02:09 50.6 °F 48.7 °F 29.97 in SE 1.2 mph 1.2 mph 93 % 0.09 in
02:14 50.6 °F 48.7 °F 29.97 in SSE 2.3 mph 2.3 mph 93 % 0.10 in
02:19 50.6 °F 48.7 °F 29.97 in SE 1.0 mph 1.1 mph 93 % 0.10 in
02:24 50.6 °F 48.7 °F 29.98 in SSE 1.2 mph   93 % 0.10 in
02:29 50.6 °F 48.7 °F 29.99 in West 1.2 mph 1.2 mph 93 % 0.10 in
02:34 50.6 °F 48.7 °F 29.99 in SE 3.5 mph 3.5 mph 93 % 0.13 in
02:39 50.5 °F 48.8 °F 29.98 in SSE 3.5 mph 3.5 mph 94 % 0.14 in
02:44 50.4 °F 48.7 °F 29.97 in SE 1.2 mph 1.2 mph 94 % 0.17 in
02:49 50.3 °F 48.6 °F 29.97 in Calm     94 % 0.17 in
02:54 50.3 °F 48.6 °F 29.97 in SSE 1.2 mph 1.2 mph 94 % 0.18 in
02:59 50.2 °F 48.5 °F 29.97 in Calm     94 % 0.18 in
03:04 50.2 °F 48.5 °F 29.97 in SSE 1.2 mph 1.2 mph 94 % 0.20 in
03:09 50.2 °F 48.5 °F 29.98 in SSE 3.5 mph 3.5 mph 94 % 0.20 in
03:19 50.1 °F 48.7 °F 29.98 in SSE 2.3 mph 2.3 mph 95 % 0.22 in
03:24 50.1 °F 48.7 °F 29.99 in Calm     95 % 0.22 in
03:29 50.1 °F 48.7 °F 29.99 in Calm     95 % 0.24 in
03:34 50.1 °F 48.7 °F 30.00 in Calm     95 % 0.23 in
03:39 50.1 °F 48.7 °F 29.99 in SE 2.3 mph 2.3 mph 95 % 0.22 in
03:44 50.1 °F 48.7 °F 29.99 in SE 3.5 mph 3.5 mph 95 % 0.19 in
03:49 50.1 °F 48.7 °F 29.98 in SE 3.5 mph 3.5 mph 95 % 0.19 in
03:54 50.1 °F 48.7 °F 29.99 in SE 1.2 mph 1.2 mph 95 % 0.18 in
03:59 50.1 °F 48.7 °F 29.99 in SE 1.2 mph   95 % 0.19 in
04:04 50.1 °F 48.7 °F 30.00 in SE 1.2 mph   95 % 0.18 in
04:09 50.1 °F 48.7 °F 30.00 in SE 2.3 mph 2.3 mph 95 % 0.19 in
04:14 50.1 °F 48.7 °F 30.00 in ESE 3.5 mph 3.5 mph 95 % 0.16 in
04:19 50.1 °F 48.7 °F 30.00 in ESE 2.3 mph 2.3 mph 95 % 0.15 in
04:25 50.1 °F 48.7 °F 29.99 in SE 3.5 mph 3.5 mph 95 % 0.13 in
04:30 50.1 °F 48.7 °F 29.99 in SE 3.5 mph 3.5 mph 95 % 0.11 in
04:35 50.1 °F 48.7 °F 29.99 in SE 3.5 mph 3.5 mph 95 % 0.08 in
04:40 50.0 °F 48.6 °F 29.99 in SE 2.3 mph 2.3 mph 95 % 0.06 in
04:45 50.0 °F 48.6 °F 30.00 in SE 1.2 mph 1.2 mph 95 % 0.05 in
04:50 50.0 °F 48.9 °F 30.00 in SE 2.3 mph 2.3 mph 96 % 0.04 in
04:55 50.0 °F 48.9 °F 30.00 in East 1.2 mph   96 % 0.05 in
05:00 50.0 °F 48.9 °F 30.00 in East 1.2 mph 1.2 mph 96 % 0.05 in
05:05 50.0 °F 48.9 °F 30.01 in East 1.2 mph 1.2 mph 96 % 0.04 in
05:10 49.9 °F 48.8 °F 30.00 in East 2.3 mph 2.3 mph 96 % 0.03 in
05:15 49.9 °F 48.8 °F 30.01 in East 2.3 mph 2.3 mph 96 % 0.03 in
05:20 49.9 °F 48.8 °F 30.01 in SSW 1.2 mph 1.2 mph 96 % 0.03 in
05:25 49.8 °F 48.7 °F 30.01 in SE 3.5 mph 3.5 mph 96 % 0.03 in
05:30 49.8 °F 48.7 °F 30.01 in SE 5.0 mph 5.0 mph 96 % 0.03 in
05:35 49.8 °F 48.7 °F 30.01 in SSE 4.0 mph 4.0 mph 96 % 0.03 in
05:40 49.7 °F 48.6 °F 30.01 in SSE 2.3 mph 2.3 mph 96 % 0.03 in
05:45 49.6 °F 48.5 °F 30.01 in SE 2.3 mph 2.3 mph 96 % 0.03 in
05:50 49.5 °F 48.4 °F 30.01 in SSE 4.6 mph 4.6 mph 96 % 0.03 in
05:55 49.5 °F 48.1 °F 30.01 in ESE 3.5 mph 3.5 mph 95 % 0.02 in
06:00 49.4 °F 48.0 °F 30.01 in East 2.3 mph 2.3 mph 95 % 0.01 in
06:05 49.3 °F 47.9 °F 30.01 in SE 1.2 mph 1.2 mph 95 % 0.01 in
06:10 49.3 °F 47.9 °F 30.01 in ENE 1.0 mph 1.0 mph 95 % 0.00 in
06:15 49.4 °F 48.3 °F 30.01 in ESE 2.0 mph 2.0 mph 96 % 0.00 in
06:20 49.4 °F 48.3 °F 30.02 in ESE 3.5 mph 3.5 mph 96 % 0.00 in
06:25 49.5 °F 48.4 °F 30.02 in ESE 6.0 mph 6.0 mph 96 % 0.00 in
06:30 49.5 °F 48.1 °F 30.02 in SE 5.8 mph 5.8 mph 95 % 0.00 in
06:35 49.5 °F 48.1 °F 30.02 in ENE 3.5 mph 3.5 mph 95 % 0.00 in
06:40 49.5 °F 48.1 °F 30.02 in SE 4.6 mph 4.6 mph 95 % 0.00 in
06:45 49.4 °F 48.0 °F 30.02 in SE 4.6 mph 4.6 mph 95 % 0.00 in
06:50 49.4 °F 48.0 °F 30.02 in ENE 3.5 mph 3.5 mph 95 % 0.00 in
06:55 49.4 °F 48.0 °F 30.02 in SE 5.8 mph 5.8 mph 95 % 0.00 in
07:00 49.3 °F 47.9 °F 30.02 in SSE 3.5 mph 3.5 mph 95 % 0.00 in
07:05 49.3 °F 47.9 °F 30.02 in SE 4.6 mph 4.6 mph 95 % 0.00 in
07:10 49.2 °F 47.8 °F 30.02 in SE 3.5 mph 3.5 mph 95 % 0.00 in
07:15 49.2 °F 47.5 °F 30.03 in SSE 5.8 mph 5.8 mph 94 % 0.00 in
07:20 49.2 °F 47.5 °F 30.03 in SE 8.1 mph 8.1 mph 94 % 0.00 in
07:25 49.2 °F 47.5 °F 30.03 in East 1.2 mph 1.2 mph 94 % 0.00 in
07:30 49.3 °F 47.6 °F 30.03 in ENE 2.3 mph   94 % 0.00 in
07:35 49.5 °F 47.8 °F 30.03 in East 2.3 mph 2.3 mph 94 % 0.00 in
07:40 49.7 °F 48.0 °F 30.03 in SE 3.5 mph 3.5 mph 94 % 0.00 in
07:45 49.8 °F 48.1 °F 30.03 in ENE 3.5 mph 3.5 mph 94 % 0.00 in
07:50 49.9 °F 48.2 °F 30.04 in SSE 5.0 mph 5.0 mph 94 % 0.00 in
07:55 50.0 °F 48.3 °F 30.04 in SSE 2.3 mph 2.3 mph 94 % 0.00 in
08:00 50.1 °F 48.4 °F 30.04 in SE 3.5 mph 3.5 mph 94 % 0.00 in
08:05 50.2 °F 48.5 °F 30.04 in SSE 3.0 mph 3.0 mph 94 % 0.00 in
08:10 50.3 °F 48.6 °F 30.04 in East 4.6 mph 4.6 mph 94 % 0.00 in
08:15 50.4 °F 48.7 °F 30.04 in East 3.5 mph 3.5 mph 94 % 0.00 in
08:20 50.5 °F 48.6 °F 30.04 in East 5.8 mph 5.8 mph 93 % 0.00 in
08:25 50.7 °F 48.7 °F 30.04 in ENE 3.5 mph 3.5 mph 93 % 0.00 in
08:30 50.9 °F 48.7 °F 30.04 in ENE 2.0 mph 2.0 mph 92 % 0.00 in
08:35 51.0 °F 48.8 °F 30.04 in East 4.6 mph 4.6 mph 92 % 0.00 in
08:41 51.2 °F 49.0 °F 30.03 in East 3.5 mph 3.5 mph 92 % 0.00 in
08:46 51.3 °F 49.1 °F 30.04 in East 2.3 mph 2.3 mph 92 % 0.00 in
08:51 51.3 °F 49.1 °F 30.04 in ENE 1.0 mph 1.0 mph 92 % 0.00 in
08:56 51.3 °F 49.1 °F 30.04 in East 3.5 mph 3.5 mph 92 % 0.00 in
09:01 51.4 °F 49.2 °F 30.04 in East 2.3 mph 2.3 mph 92 % 0.00 in
09:06 51.5 °F 49.3 °F 30.04 in NE 2.3 mph 2.3 mph 92 % 0.00 in
09:11 51.7 °F 49.7 °F 30.04 in East 3.5 mph 3.5 mph 93 % 0.00 in
09:16 52.0 °F 49.7 °F 30.04 in SSE 4.6 mph 4.6 mph 92 % 0.00 in
09:21 52.3 °F 50.0 °F 30.05 in East 3.5 mph 3.5 mph 92 % 0.00 in
09:26 52.4 °F 50.1 °F 30.04 in SE 5.0 mph 5.0 mph 92 % 0.00 in
09:31 52.5 °F 49.9 °F 30.05 in East 1.2 mph 1.2 mph 91 % 0.00 in
09:36 52.8 °F 50.2 °F 30.05 in East 3.0 mph 3.0 mph 91 % 0.00 in
09:41 52.9 °F 50.3 °F 30.05 in SSE 2.3 mph 2.3 mph 91 % 0.00 in
09:46 53.0 °F 50.1 °F 30.05 in SW 3.0 mph 3.0 mph 90 % 0.00 in
09:51 53.0 °F 50.1 °F 30.05 in SSE 3.5 mph 3.5 mph 90 % 0.00 in
09:56 52.9 °F 50.0 °F 30.05 in SSE 3.5 mph 3.5 mph 90 % 0.00 in
10:01 52.9 °F 49.7 °F 30.04 in SSE 3.5 mph 3.5 mph 89 % 0.00 in
10:06 53.1 °F 50.2 °F 30.05 in SSE 2.3 mph 2.3 mph 90 % 0.00 in
10:11 53.1 °F 49.9 °F 30.05 in East 5.0 mph 5.0 mph 89 % 0.00 in
10:16 53.1 °F 49.6 °F 30.05 in SSE 2.3 mph 2.3 mph 88 % 0.00 in
10:21 53.1 °F 49.9 °F 30.04 in SSE 3.5 mph   89 % 0.00 in
10:26 53.2 °F 50.0 °F 30.04 in SSE 2.3 mph 2.3 mph 89 % 0.00 in
10:31 53.4 °F 50.2 °F 30.04 in East 2.3 mph 2.3 mph 89 % 0.00 in
10:36 53.6 °F 49.8 °F 30.04 in ESE 2.3 mph 2.3 mph 87 % 0.00 in
10:41 53.9 °F 50.4 °F 30.04 in Calm     88 % 0.00 in
10:46 54.2 °F 50.7 °F 30.04 in SW 2.3 mph 2.3 mph 88 % 0.00 in
10:51 54.4 °F 50.3 °F 30.04 in SSE 1.2 mph 1.2 mph 86 % 0.00 in
10:56 54.5 °F 50.1 °F 30.04 in South 3.5 mph 3.5 mph 85 % 0.00 in
11:01 54.7 °F 50.3 °F 30.03 in South 2.3 mph 2.3 mph 85 % 0.00 in
11:06 54.7 °F 50.0 °F 30.04 in SSE 3.5 mph 3.5 mph 84 % 0.00 in
11:11 54.7 °F 50.0 °F 30.03 in ESE 1.2 mph 1.2 mph 84 % 0.00 in
11:16 54.8 °F 50.4 °F 30.04 in East 3.5 mph 3.5 mph 85 % 0.00 in
11:21 54.9 °F 50.2 °F 30.04 in SE 1.2 mph 1.2 mph 84 % 0.00 in
11:26 55.1 °F 50.4 °F 30.03 in SSE 2.3 mph 2.3 mph 84 % 0.00 in
11:31 55.4 °F 50.3 °F 30.03 in SSW 1.2 mph 1.2 mph 83 % 0.00 in
11:36 55.7 °F 50.3 °F 30.03 in NNW 2.3 mph 2.3 mph 82 % 0.00 in
11:41 56.2 °F 50.4 °F 30.03 in South 3.5 mph 3.5 mph 81 % 0.00 in
11:46 56.3 °F 49.9 °F 30.04 in NW 2.3 mph 2.3 mph 79 % 0.00 in
11:51 56.3 °F 50.2 °F 30.03 in SW 2.3 mph 2.3 mph 80 % 0.00 in
11:56 55.8 °F 50.4 °F 30.03 in NW 3.5 mph 3.5 mph 82 % 0.00 in
12:01 55.7 °F 50.3 °F 30.03 in NW 3.5 mph 3.5 mph 82 % 0.00 in
12:06 55.5 °F 49.1 °F 30.03 in NW 3.5 mph 3.5 mph 79 % 0.00 in
12:12 55.5 °F 48.4 °F 30.03 in NW 3.5 mph 3.5 mph 77 % 0.00 in
12:17 55.3 °F 48.2 °F 30.03 in NNE 3.5 mph 3.5 mph 77 % 0.00 in
12:22 55.5 °F 48.1 °F 30.03 in NW 2.3 mph 2.3 mph 76 % 0.00 in
12:27 56.3 °F 48.8 °F 30.03 in NW 2.3 mph 2.3 mph 76 % 0.00 in
12:32 57.0 °F 48.8 °F 30.02 in WNW 3.5 mph 3.5 mph 74 % 0.00 in
12:37 57.5 °F 48.5 °F 30.02 in NW 2.3 mph 2.3 mph 72 % 0.00 in
12:42 57.7 °F 48.7 °F 30.02 in NW 2.0 mph 2.0 mph 72 % 0.00 in
12:47 57.5 °F 47.8 °F 30.02 in WNW 1.2 mph 1.2 mph 70 % 0.00 in
12:52 57.5 °F 48.9 °F 30.01 in NNW 1.2 mph 1.2 mph 73 % 0.00 in
12:57 57.8 °F 48.8 °F 30.01 in NW 2.3 mph 2.3 mph 72 % 0.00 in
13:02 58.1 °F 48.7 °F 30.01 in WNW 2.3 mph 2.3 mph 71 % 0.00 in
13:07 58.2 °F 48.5 °F 30.01 in Calm     70 % 0.00 in
13:12 58.5 °F 49.1 °F 30.01 in Calm   0.3 mph 71 % 0.00 in
13:17 58.7 °F 48.6 °F 30.01 in Calm     69 % 0.00 in
13:22 58.7 °F 48.2 °F 30.01 in West 2.3 mph 2.3 mph 68 % 0.00 in
13:27 58.7 °F 49.3 °F 30.00 in SSE 1.0 mph 1.0 mph 71 % 0.00 in
13:32 59.7 °F 50.7 °F 30.00 in Calm     72 % 0.00 in
13:37 60.4 °F 49.0 °F 30.00 in NW 1.2 mph 1.2 mph 66 % 0.00 in
13:42 61.1 °F 49.2 °F 30.00 in SSE 2.3 mph 2.3 mph 65 % 0.00 in
13:47 60.9 °F 48.6 °F 30.00 in SSW 2.3 mph   64 % 0.00 in
13:52 60.7 °F 49.3 °F 30.00 in Calm   0.1 mph 66 % 0.00 in
13:57 60.7 °F 48.4 °F 30.00 in SSE 2.3 mph 2.3 mph 64 % 0.00 in
14:02 60.6 °F 48.4 °F 30.00 in Calm   0.1 mph 64 % 0.00 in
14:07 60.5 °F 48.7 °F 30.00 in SSE 1.0 mph   65 % 0.00 in
14:12 60.6 °F 48.4 °F 30.00 in South 3.5 mph 3.5 mph 64 % 0.00 in
14:18 60.6 °F 48.4 °F 30.00 in East 1.2 mph 1.2 mph 64 % 0.00 in
14:23 60.8 °F 49.0 °F 29.99 in SSE 2.3 mph 2.3 mph 65 % 0.00 in
14:27 61.4 °F 49.1 °F 29.99 in SE 4.0 mph 4.0 mph 64 % 0.00 in
14:33 61.5 °F 48.4 °F 29.99 in SE 3.5 mph 3.5 mph 62 % 0.00 in
14:38 61.4 °F 49.1 °F 29.99 in ESE 3.5 mph 3.5 mph 64 % 0.00 in
14:43 61.2 °F 48.5 °F 29.99 in SE 3.5 mph 3.5 mph 63 % 0.00 in
14:48 61.4 °F 49.1 °F 29.99 in Calm     64 % 0.00 in
14:53 61.2 °F 48.1 °F 29.99 in SE 3.5 mph 3.5 mph 62 % 0.00 in
14:58 60.7 °F 47.6 °F 29.98 in SSE 1.2 mph 1.2 mph 62 % 0.00 in
15:03 60.5 °F 45.6 °F 29.98 in ESE 2.3 mph 2.3 mph 58 % 0.00 in
15:08 60.3 °F 46.4 °F 29.98 in SE 1.2 mph   60 % 0.00 in
15:13 60.2 °F 46.3 °F 29.98 in Calm     60 % 0.00 in
15:18 60.0 °F 46.5 °F 29.98 in South 2.3 mph 2.3 mph 61 % 0.00 in
15:23 60.0 °F 46.9 °F 29.98 in SSE 2.3 mph 2.3 mph 62 % 0.00 in
15:28 59.9 °F 46.0 °F 29.98 in NW 1.2 mph 1.2 mph 60 % 0.00 in
15:33 59.9 °F 46.4 °F 29.98 in SSE 1.2 mph   61 % 0.00 in
15:38 59.9 °F 46.8 °F 29.98 in SSE 1.2 mph 1.2 mph 62 % 0.00 in
15:43 59.8 °F 45.9 °F 29.98 in NW 3.5 mph 3.5 mph 60 % 0.00 in
15:48 59.7 °F 46.2 °F 29.98 in NW 1.2 mph 1.2 mph 61 % 0.00 in
15:53 59.5 °F 46.0 °F 29.98 in NNW 1.2 mph 1.2 mph 61 % 0.00 in
15:58 59.3 °F 46.7 °F 29.98 in West 3.5 mph 3.5 mph 63 % 0.00 in
16:03 58.8 °F 47.9 °F 29.98 in NW 5.0 mph 5.0 mph 67 % 0.00 in
16:08 58.0 °F 47.5 °F 29.98 in NNW 4.6 mph 4.6 mph 68 % 0.00 in
16:13 57.6 °F 47.5 °F 29.98 in NW 3.5 mph 3.5 mph 69 % 0.00 in
16:18 57.2 °F 47.1 °F 29.98 in NNW 3.5 mph 3.5 mph 69 % 0.00 in
16:23 56.8 °F 47.5 °F 29.98 in NW 3.0 mph 3.0 mph 71 % 0.00 in
16:28 56.4 °F 47.9 °F 29.99 in NNW 3.5 mph 3.5 mph 73 % 0.00 in
16:33 56.2 °F 47.7 °F 29.99 in North 3.5 mph 3.5 mph 73 % 0.00 in
16:38 56.1 °F 48.3 °F 29.99 in NW 5.8 mph 5.8 mph 75 % 0.00 in
16:43 55.8 °F 49.4 °F 29.99 in WNW 2.3 mph 2.3 mph 79 % 0.00 in
16:48 55.0 °F 49.3 °F 29.99 in NW 3.5 mph 3.5 mph 81 % 0.01 in
16:53 54.3 °F 49.2 °F 29.99 in NW 2.3 mph 2.3 mph 83 % 0.01 in
16:58 53.9 °F 49.5 °F 29.99 in West 2.3 mph 2.3 mph 85 % 0.01 in
17:03 53.7 °F 49.6 °F 29.99 in WNW 2.3 mph 2.3 mph 86 % 0.01 in
17:08 53.6 °F 49.5 °F 29.99 in WNW 2.3 mph 2.3 mph 86 % 0.01 in
17:13 53.6 °F 49.5 °F 29.99 in NW 1.2 mph 1.2 mph 86 % 0.01 in
17:18 53.5 °F 49.4 °F 29.99 in West 3.5 mph 3.5 mph 86 % 0.01 in
17:23 53.4 °F 49.3 °F 29.99 in WNW 3.5 mph 3.5 mph 86 % 0.01 in
17:28 53.2 °F 48.8 °F 29.99 in SSW 1.2 mph 1.2 mph 85 % 0.01 in
17:33 53.0 °F 48.3 °F 29.99 in Calm     84 % 0.01 in
17:38 52.8 °F 47.8 °F 29.99 in NNW 3.5 mph   83 % 0.01 in
17:43 52.6 °F 48.2 °F 29.99 in South 1.2 mph   85 % 0.01 in
17:48 52.3 °F 47.9 °F 29.99 in South 1.2 mph 1.2 mph 85 % 0.01 in
17:53 51.9 °F 47.5 °F 29.98 in Calm     85 % 0.01 in
17:58 51.8 °F 47.7 °F 29.99 in Calm     86 % 0.01 in
18:03 51.6 °F 48.2 °F 29.99 in Calm     88 % 0.01 in
18:08 51.5 °F 48.1 °F 29.99 in Calm     88 % 0.01 in
18:13 51.4 °F 47.7 °F 30.00 in ESE 1.2 mph 1.2 mph 87 % 0.01 in
18:18 51.3 °F 47.9 °F 30.00 in Calm     88 % 0.01 in
18:23 51.3 °F 47.6 °F 30.00 in ESE 1.2 mph 1.2 mph 87 % 0.01 in
18:28 51.3 °F 47.6 °F 29.99 in SE 1.2 mph 1.2 mph 87 % 0.01 in
18:33 51.1 °F 47.4 °F 30.00 in SE 1.2 mph 1.2 mph 87 % 0.01 in
18:38 50.9 °F 47.2 °F 30.00 in East 1.2 mph 1.2 mph 87 % 0.01 in
18:43 50.7 °F 47.3 °F 29.99 in East 1.2 mph   88 % 0.01 in
18:48 50.6 °F 47.2 °F 29.99 in East 1.2 mph 1.2 mph 88 % 0.00 in
18:53 50.5 °F 47.1 °F 29.99 in ESE 2.3 mph 2.3 mph 88 % 0.00 in
18:58 50.5 °F 47.1 °F 30.00 in ESE 1.2 mph   88 % 0.00 in
19:03 50.5 °F 47.1 °F 30.00 in SE 2.3 mph 2.3 mph 88 % 0.00 in
19:08 50.6 °F 47.2 °F 30.00 in East 1.0 mph 1.0 mph 88 % 0.00 in
19:13 50.7 °F 47.0 °F 30.00 in ESE 2.0 mph 2.0 mph 87 % 0.00 in
19:18 50.8 °F 47.1 °F 29.99 in Calm     87 % 0.00 in
19:23 50.8 °F 46.8 °F 29.99 in ESE 1.2 mph   86 % 0.00 in
19:28 50.8 °F 46.8 °F 29.99 in ESE 1.2 mph 1.2 mph 86 % 0.00 in
19:34 50.8 °F 46.8 °F 30.00 in ESE 1.2 mph 1.2 mph 86 % 0.00 in
19:39 50.8 °F 46.8 °F 29.99 in ESE 1.2 mph   86 % 0.00 in
19:44 50.9 °F 46.6 °F 29.99 in ESE 1.2 mph 1.2 mph 85 % 0.00 in
19:49 50.9 °F 46.6 °F 29.99 in Calm     85 % 0.00 in
19:54 50.9 °F 46.6 °F 29.99 in ESE 2.3 mph 2.3 mph 85 % 0.00 in
19:59 51.0 °F 46.6 °F 29.99 in ESE 1.2 mph 1.2 mph 85 % 0.00 in
20:04 51.0 °F 46.6 °F 29.99 in ESE 3.5 mph 3.5 mph 85 % 0.00 in
20:09 51.2 °F 46.8 °F 29.99 in ESE 1.2 mph 1.2 mph 85 % 0.00 in
20:14 51.2 °F 46.8 °F 29.99 in ESE 1.2 mph 1.2 mph 85 % 0.00 in
20:19 51.2 °F 46.8 °F 29.99 in Calm     85 % 0.00 in
20:24 51.1 °F 46.7 °F 29.99 in SE 1.2 mph 1.2 mph 85 % 0.00 in
20:29 51.0 °F 46.6 °F 29.99 in SSE 2.3 mph 2.3 mph 85 % 0.00 in
20:34 51.0 °F 46.6 °F 29.99 in East 1.2 mph 1.2 mph 85 % 0.00 in
20:39 50.9 °F 46.6 °F 30.00 in SE 1.2 mph 1.2 mph 85 % 0.00 in
20:44 50.7 °F 46.4 °F 30.00 in Calm     85 % 0.00 in
20:49 50.6 °F 46.6 °F 29.99 in Calm     86 % 0.00 in
20:54 50.6 °F 46.6 °F 30.00 in SE 1.2 mph 1.2 mph 86 % 0.00 in
20:59 50.6 °F 46.3 °F 30.00 in East 1.2 mph 1.2 mph 85 % 0.00 in
21:04 50.7 °F 46.4 °F 30.00 in Calm     85 % 0.00 in
21:09 50.7 °F 46.4 °F 30.00 in ENE 1.2 mph 1.2 mph 85 % 0.00 in
21:14 50.7 °F 46.7 °F 30.00 in ESE 1.2 mph   86 % 0.00 in
21:19 50.5 °F 46.5 °F 30.00 in Calm     86 % 0.00 in
21:24 50.2 °F 46.5 °F 30.00 in Calm     87 % 0.00 in
21:29 50.1 °F 46.7 °F 30.00 in Calm     88 % 0.00 in
21:34 50.0 °F 46.6 °F 30.00 in Calm     88 % 0.00 in
21:39 49.8 °F 46.7 °F 30.00 in Calm     89 % 0.00 in
21:44 49.7 °F 46.6 °F 30.00 in Calm     89 % 0.00 in
21:49 49.7 °F 46.6 °F 30.00 in Calm     89 % 0.00 in
21:54 49.7 °F 46.6 °F 30.00 in Calm     89 % 0.00 in
21:59 49.7 °F 46.6 °F 30.00 in Calm     89 % 0.00 in
22:04 49.7 °F 46.6 °F 30.00 in Calm     89 % 0.00 in
22:09 49.7 °F 46.6 °F 30.00 in SE 1.2 mph   89 % 0.00 in
22:14 49.6 °F 46.5 °F 29.99 in Calm     89 % 0.00 in
22:19 49.7 °F 46.6 °F 30.00 in Calm     89 % 0.00 in
22:24 49.7 °F 46.6 °F 29.99 in Calm     89 % 0.00 in
22:29 49.6 °F 46.8 °F 29.99 in Calm     90 % 0.00 in
22:34 49.5 °F 46.4 °F 29.99 in Calm     89 % 0.00 in
22:39 49.4 °F 46.6 °F 29.99 in Calm     90 % 0.00 in
22:44 49.2 °F 46.4 °F 29.99 in Calm     90 % 0.00 in
22:49 48.9 °F 46.1 °F 29.99 in Calm     90 % 0.00 in
22:54 48.7 °F 46.2 °F 29.99 in Calm     91 % 0.00 in
22:59 48.4 °F 45.9 °F 29.99 in Calm     91 % 0.00 in
23:04 48.3 °F 46.1 °F 29.99 in Calm     92 % 0.00 in
23:09 48.1 °F 45.9 °F 29.99 in Calm     92 % 0.00 in
23:14 48.0 °F 45.8 °F 29.99 in Calm     92 % 0.00 in
23:19 47.9 °F 45.7 °F 29.99 in Calm     92 % 0.00 in
23:24 47.9 °F 45.7 °F 29.99 in Calm     92 % 0.00 in
23:29 48.0 °F 46.1 °F 29.99 in Calm     93 % 0.00 in
23:34 48.1 °F 46.2 °F 29.99 in Calm     93 % 0.00 in
23:39 48.3 °F 46.4 °F 29.99 in Calm     93 % 0.00 in
23:44 48.4 °F 46.5 °F 29.99 in Calm     93 % 0.00 in
23:49 48.5 °F 46.6 °F 29.99 in Calm     93 % 0.00 in
23:54 48.6 °F 46.7 °F 30.00 in Calm     93 % 0.01 in
23:59 48.7 °F 46.8 °F 29.99 in Calm     93 % 0.01 in
Park Place, Exeter, Tulare County, California, USA
Compliments of Weather Underground - 2.75 mb